Pilot Station, Alaska
Current Conditions -  °F | °C
As of 11:16 PM on Wednesday 26 Nov 2014 (Local Time) from PASM Reporting Station
Broken Clouds Broken Clouds  
Wind Chill: -13°   Ceiling: 3300
Heat Index: -6°   Visibility: 10mi
Dew Point: -8°   Wind: 15mph
Humidity: 86%   Direction: 90°E
Pressure: 30.14"   Gusts: 21mph
Location:  61.94°N, 162.88°W
Report Text: PASM 270816Z AUTO 09013G18KT 10SM BKN033 BKN043 M06/M08 A3014 RMK AO1
Loading
Personal Weather Stations






























Interactive Weather Map New forecast layout! Learn more

10-Day Weather Forecast

Advertisements
Track Severe Weather on mobile